sensor_id;sensor_type;location;lat;lon;timestamp;P1;durP1;ratioP1;P2;durP2;ratioP2
2031;SDS011;27625;50.422;7.944;2023-04-06T10:55:20;15.55;;;10.00;;
2031;SDS011;27625;50.422;7.944;2023-04-06T10:57:50;13.67;;;10.00;;
2031;SDS011;27625;50.422;7.944;2023-04-06T11:00:19;16.60;;;10.27;;
2031;SDS011;27625;50.422;7.944;2023-04-06T11:02:46;17.43;;;9.53;;
2031;SDS011;27625;50.422;7.944;2023-04-06T11:05:14;14.10;;;9.90;;
2031;SDS011;27625;50.422;7.944;2023-04-06T11:07:48;13.80;;;9.30;;
2031;SDS011;27625;50.422;7.944;2023-04-06T11:10:21;15.33;;;9.97;;
2031;SDS011;27625;50.422;7.944;2023-04-06T11:12:54;14.20;;;9.53;;
2031;SDS011;27625;50.422;7.944;2023-04-06T11:15:21;14.90;;;10.20;;
2031;SDS011;27625;50.422;7.944;2023-04-06T11:17:47;13.47;;;9.30;;
2031;SDS011;27625;50.422;7.944;2023-04-06T11:20:16;14.30;;;9.60;;
2031;SDS011;27625;50.422;7.944;2023-04-06T11:22:48;13.10;;;9.50;;
2031;SDS011;27625;50.422;7.944;2023-04-06T11:25:18;16.87;;;9.40;;
2031;SDS011;27625;50.422;7.944;2023-04-06T11:27:47;15.10;;;10.20;;
2031;SDS011;27625;50.422;7.944;2023-04-06T11:30:14;13.10;;;9.63;;
2031;SDS011;27625;50.422;7.944;2023-04-06T11:32:41;12.90;;;9.40;;
2031;SDS011;27625;50.422;7.944;2023-04-06T11:35:10;12.30;;;8.13;;
2031;SDS011;27625;50.422;7.944;2023-04-06T11:37:37;11.93;;;9.10;;
2031;SDS011;27625;50.422;7.944;2023-04-06T11:40:07;11.90;;;8.57;;
2031;SDS011;27625;50.422;7.944;2023-04-06T11:42:34;10.63;;;8.43;;
2031;SDS011;27625;50.422;7.944;2023-04-06T11:45:04;11.70;;;8.77;;
2031;SDS011;27625;50.422;7.944;2023-04-06T11:47:34;12.63;;;8.53;;
2031;SDS011;27625;50.422;7.944;2023-04-06T11:50:06;17.70;;;8.20;;
2031;SDS011;27625;50.422;7.944;2023-04-06T11:52:35;13.10;;;9.30;;
2031;SDS011;27625;50.422;7.944;2023-04-06T11:55:10;12.10;;;8.70;;
2031;SDS011;27625;50.422;7.944;2023-04-06T11:57:38;12.83;;;8.60;;
2031;SDS011;27625;50.422;7.944;2023-04-06T12:00:07;18.30;;;9.37;;
2031;SDS011;27625;50.422;7.944;2023-04-06T12:02:35;11.90;;;8.07;;
2031;SDS011;27625;50.422;7.944;2023-04-06T12:05:02;17.60;;;8.60;;
2031;SDS011;27625;50.422;7.944;2023-04-06T12:07:29;12.30;;;8.70;;
2031;SDS011;27625;50.422;7.944;2023-04-06T12:09:56;10.50;;;7.77;;
2031;SDS011;27625;50.422;7.944;2023-04-06T12:12:23;13.27;;;7.97;;
2031;SDS011;27625;50.422;7.944;2023-04-06T12:14:51;11.13;;;8.10;;
2031;SDS011;27625;50.422;7.944;2023-04-06T12:17:19;11.43;;;8.20;;
2031;SDS011;27625;50.422;7.944;2023-04-06T12:19:46;11.17;;;8.30;;
2031;SDS011;27625;50.422;7.944;2023-04-06T12:22:14;11.50;;;8.90;;
2031;SDS011;27625;50.422;7.944;2023-04-06T12:24:41;12.30;;;8.80;;
2031;SDS011;27625;50.422;7.944;2023-04-06T12:27:08;16.00;;;9.83;;
2031;SDS011;27625;50.422;7.944;2023-04-06T12:29:36;10.97;;;8.93;;
2031;SDS011;27625;50.422;7.944;2023-04-06T12:32:03;11.60;;;8.90;;
2031;SDS011;27625;50.422;7.944;2023-04-06T12:34:31;10.70;;;8.07;;
2031;SDS011;27625;50.422;7.944;2023-04-06T12:36:59;12.67;;;9.03;;
2031;SDS011;27625;50.422;7.944;2023-04-06T12:39:26;10.87;;;8.87;;
2031;SDS011;27625;50.422;7.944;2023-04-06T12:41:53;13.10;;;9.40;;
2031;SDS011;27625;50.422;7.944;2023-04-06T12:44:21;12.40;;;8.93;;
2031;SDS011;27625;50.422;7.944;2023-04-06T12:46:48;15.90;;;9.50;;
2031;SDS011;27625;50.422;7.944;2023-04-06T12:49:15;12.77;;;8.90;;
2031;SDS011;27625;50.422;7.944;2023-04-06T12:51:45;15.00;;;9.90;;
2031;SDS011;27625;50.422;7.944;2023-04-06T12:54:11;13.53;;;8.47;;
2031;SDS011;27625;50.422;7.944;2023-04-06T12:56:38;14.13;;;8.73;;
2031;SDS011;27625;50.422;7.944;2023-04-06T12:59:05;10.80;;;8.93;;
2031;SDS011;27625;50.422;7.944;2023-04-06T13:01:31;14.30;;;9.80;;
2031;SDS011;27625;50.422;7.944;2023-04-06T13:03:58;12.63;;;9.90;;
2031;SDS011;27625;50.422;7.944;2023-04-06T13:06:27;11.50;;;9.03;;
2031;SDS011;27625;50.422;7.944;2023-04-06T13:08:55;9.93;;;8.57;;
2031;SDS011;27625;50.422;7.944;2023-04-06T13:11:23;11.60;;;9.77;;
2031;SDS011;27625;50.422;7.944;2023-04-06T13:13:52;11.20;;;8.60;;
2031;SDS011;27625;50.422;7.944;2023-04-06T13:16:20;15.27;;;10.07;;
2031;SDS011;27625;50.422;7.944;2023-04-06T13:18:47;14.50;;;9.60;;
2031;SDS011;27625;50.422;7.944;2023-04-06T13:21:16;16.63;;;9.50;;
2031;SDS011;27625;50.422;7.944;2023-04-06T13:23:43;12.33;;;8.60;;
2031;SDS011;27625;50.422;7.944;2023-04-06T13:26:11;10.37;;;7.80;;
2031;SDS011;27625;50.422;7.944;2023-04-06T13:28:38;13.93;;;8.73;;
2031;SDS011;27625;50.422;7.944;2023-04-06T13:31:05;12.07;;;7.60;;
2031;SDS011;27625;50.422;7.944;2023-04-06T13:33:34;10.47;;;7.57;;
2031;SDS011;27625;50.422;7.944;2023-04-06T13:36:01;10.30;;;8.20;;
2031;SDS011;27625;50.422;7.944;2023-04-06T13:38:30;12.43;;;8.60;;
2031;SDS011;27625;50.422;7.944;2023-04-06T13:40:59;10.50;;;8.27;;
2031;SDS011;27625;50.422;7.944;2023-04-06T13:43:28;11.17;;;7.90;;
2031;SDS011;27625;50.422;7.944;2023-04-06T13:45:57;11.53;;;8.67;;
2031;SDS011;27625;50.422;7.944;2023-04-06T13:48:25;11.63;;;8.50;;
2031;SDS011;27625;50.422;7.944;2023-04-06T13:50:52;11.63;;;7.77;;
2031;SDS011;27625;50.422;7.944;2023-04-06T13:53:19;10.57;;;8.27;;
2031;SDS011;27625;50.422;7.944;2023-04-06T13:55:51;11.43;;;8.57;;
2031;SDS011;27625;50.422;7.944;2023-04-06T13:58:19;11.73;;;8.80;;
2031;SDS011;27625;50.422;7.944;2023-04-06T14:00:47;9.10;;;7.30;;
2031;SDS011;27625;50.422;7.944;2023-04-06T14:03:15;12.00;;;8.27;;
2031;SDS011;27625;50.422;7.944;2023-04-06T14:05:43;10.40;;;8.50;;
2031;SDS011;27625;50.422;7.944;2023-04-06T14:10:45;11.00;;;8.87;;
2031;SDS011;27625;50.422;7.944;2023-04-06T14:13:12;11.53;;;8.20;;
2031;SDS011;27625;50.422;7.944;2023-04-06T14:15:41;11.60;;;8.10;;
2031;SDS011;27625;50.422;7.944;2023-04-06T14:18:11;10.40;;;8.17;;
2031;SDS011;27625;50.422;7.944;2023-04-06T14:20:43;11.80;;;8.30;;
2031;SDS011;27625;50.422;7.944;2023-04-06T14:23:10;10.10;;;8.17;;
2031;SDS011;27625;50.422;7.944;2023-04-06T14:25:41;9.93;;;7.77;;
2031;SDS011;27625;50.422;7.944;2023-04-06T14:28:08;8.67;;;7.50;;
2031;SDS011;27625;50.422;7.944;2023-04-06T14:30:36;10.47;;;7.87;;
2031;SDS011;27625;50.422;7.944;2023-04-06T14:33:03;10.93;;;6.77;;
2031;SDS011;27625;50.422;7.944;2023-04-06T14:35:34;11.00;;;8.10;;
2031;SDS011;27625;50.422;7.944;2023-04-06T14:38:04;12.60;;;7.77;;
2031;SDS011;27625;50.422;7.944;2023-04-06T14:40:33;9.60;;;7.23;;
2031;SDS011;27625;50.422;7.944;2023-04-06T14:43:01;11.03;;;7.77;;
2031;SDS011;27625;50.422;7.944;2023-04-06T14:45:28;10.87;;;7.60;;
2031;SDS011;27625;50.422;7.944;2023-04-06T14:47:54;10.80;;;7.73;;
2031;SDS011;27625;50.422;7.944;2023-04-06T14:50:23;12.33;;;9.20;;
2031;SDS011;27625;50.422;7.944;2023-04-06T14:52:51;9.57;;;7.37;;
2031;SDS011;27625;50.422;7.944;2023-04-06T14:55:18;10.97;;;6.17;;
2031;SDS011;27625;50.422;7.944;2023-04-06T14:57:46;9.13;;;5.03;;
2031;SDS011;27625;50.422;7.944;2023-04-06T15:00:13;8.47;;;5.77;;
2031;SDS011;27625;50.422;7.944;2023-04-06T15:02:41;13.37;;;8.07;;
2031;SDS011;27625;50.422;7.944;2023-04-06T15:05:08;12.80;;;7.83;;
2031;SDS011;27625;50.422;7.944;2023-04-06T15:07:36;10.23;;;7.23;;
2031;SDS011;27625;50.422;7.944;2023-04-06T15:10:04;9.63;;;7.37;;
2031;SDS011;27625;50.422;7.944;2023-04-06T15:12:35;9.57;;;6.40;;
2031;SDS011;27625;50.422;7.944;2023-04-06T15:15:03;9.50;;;7.20;;
2031;SDS011;27625;50.422;7.944;2023-04-06T15:17:31;10.50;;;7.50;;
2031;SDS011;27625;50.422;7.944;2023-04-06T15:19:57;11.70;;;8.10;;
2031;SDS011;27625;50.422;7.944;2023-04-06T15:22:24;12.30;;;8.30;;
2031;SDS011;27625;50.422;7.944;2023-04-06T15:24:51;10.50;;;7.60;;
2031;SDS011;27625;50.422;7.944;2023-04-06T15:27:19;12.50;;;7.30;;
2031;SDS011;27625;50.422;7.944;2023-04-06T15:29:46;10.00;;;7.50;;
2031;SDS011;27625;50.422;7.944;2023-04-06T15:32:13;10.50;;;7.60;;
2031;SDS011;27625;50.422;7.944;2023-04-06T15:34:40;14.03;;;7.63;;
2031;SDS011;27625;50.422;7.944;2023-04-06T15:37:07;10.67;;;7.77;;
2031;SDS011;27625;50.422;7.944;2023-04-06T15:39:35;12.80;;;7.10;;
2031;SDS011;27625;50.422;7.944;2023-04-06T15:42:04;12.73;;;8.83;;
2031;SDS011;27625;50.422;7.944;2023-04-06T15:44:32;13.70;;;9.03;;
2031;SDS011;27625;50.422;7.944;2023-04-06T15:46:59;10.73;;;8.37;;
2031;SDS011;27625;50.422;7.944;2023-04-06T15:49:27;9.73;;;7.80;;
2031;SDS011;27625;50.422;7.944;2023-04-06T15:51:56;9.70;;;7.57;;
2031;SDS011;27625;50.422;7.944;2023-04-06T15:54:22;10.23;;;7.63;;
2031;SDS011;27625;50.422;7.944;2023-04-06T15:56:49;13.40;;;8.00;;
2031;SDS011;27625;50.422;7.944;2023-04-06T15:59:16;12.03;;;7.77;;
2031;SDS011;27625;50.422;7.944;2023-04-06T16:01:45;10.57;;;7.93;;
2031;SDS011;27625;50.422;7.944;2023-04-06T16:04:14;8.80;;;7.33;;
2031;SDS011;27625;50.422;7.944;2023-04-06T16:06:42;10.40;;;8.10;;
2031;SDS011;27625;50.422;7.944;2023-04-06T16:09:09;9.90;;;7.60;;
2031;SDS011;27625;50.422;7.944;2023-04-06T16:11:35;10.07;;;7.73;;
2031;SDS011;27625;50.422;7.944;2023-04-06T16:14:02;9.00;;;7.40;;
2031;SDS011;27625;50.422;7.944;2023-04-06T16:16:30;10.20;;;7.80;;
2031;SDS011;27625;50.422;7.944;2023-04-06T16:18:58;10.63;;;7.87;;
2031;SDS011;27625;50.422;7.944;2023-04-06T16:21:26;10.43;;;7.90;;
2031;SDS011;27625;50.422;7.944;2023-04-06T16:23:53;11.77;;;7.20;;
2031;SDS011;27625;50.422;7.944;2023-04-06T16:26:20;10.20;;;7.37;;
2031;SDS011;27625;50.422;7.944;2023-04-06T16:28:53;10.40;;;8.17;;
2031;SDS011;27625;50.422;7.944;2023-04-06T16:31:23;10.90;;;8.77;;
2031;SDS011;27625;50.422;7.944;2023-04-06T16:33:52;11.33;;;7.93;;
2031;SDS011;27625;50.422;7.944;2023-04-06T16:36:22;11.33;;;9.57;;
2031;SDS011;27625;50.422;7.944;2023-04-06T16:38:50;11.03;;;8.33;;
2031;SDS011;27625;50.422;7.944;2023-04-06T16:41:16;10.23;;;8.10;;
2031;SDS011;27625;50.422;7.944;2023-04-06T16:43:43;10.67;;;8.80;;
2031;SDS011;27625;50.422;7.944;2023-04-06T16:46:11;13.60;;;10.27;;
2031;SDS011;27625;50.422;7.944;2023-04-06T16:48:38;11.97;;;8.17;;
2031;SDS011;27625;50.422;7.944;2023-04-06T16:51:05;12.40;;;8.00;;
2031;SDS011;27625;50.422;7.944;2023-04-06T16:53:33;13.20;;;7.83;;
2031;SDS011;27625;50.422;7.944;2023-04-06T16:56:01;11.30;;;8.50;;
2031;SDS011;27625;50.422;7.944;2023-04-06T16:58:29;12.43;;;9.50;;
2031;SDS011;27625;50.422;7.944;2023-04-06T17:00:56;14.10;;;8.70;;
2031;SDS011;27625;50.422;7.944;2023-04-06T17:03:25;14.83;;;9.50;;
2031;SDS011;27625;50.422;7.944;2023-04-06T17:05:53;14.00;;;9.27;;
2031;SDS011;27625;50.422;7.944;2023-04-06T17:08:21;12.33;;;7.90;;
2031;SDS011;27625;50.422;7.944;2023-04-06T17:10:49;15.03;;;10.10;;
2031;SDS011;27625;50.422;7.944;2023-04-06T17:13:16;13.70;;;10.10;;
2031;SDS011;27625;50.422;7.944;2023-04-06T17:15:45;15.40;;;11.87;;
2031;SDS011;27625;50.422;7.944;2023-04-06T17:18:11;11.20;;;9.00;;
2031;SDS011;27625;50.422;7.944;2023-04-06T17:20:38;12.13;;;9.20;;
2031;SDS011;27625;50.422;7.944;2023-04-06T17:23:06;12.07;;;7.57;;
2031;SDS011;27625;50.422;7.944;2023-04-06T17:25:33;10.70;;;7.57;;
2031;SDS011;27625;50.422;7.944;2023-04-06T17:28:04;10.30;;;8.00;;
2031;SDS011;27625;50.422;7.944;2023-04-06T17:30:32;9.50;;;7.40;;
2031;SDS011;27625;50.422;7.944;2023-04-06T17:33:02;12.60;;;7.83;;
2031;SDS011;27625;50.422;7.944;2023-04-06T17:35:29;11.40;;;7.60;;
2031;SDS011;27625;50.422;7.944;2023-04-06T17:38:00;11.80;;;8.50;;
2031;SDS011;27625;50.422;7.944;2023-04-06T17:40:32;12.43;;;8.00;;
2031;SDS011;27625;50.422;7.944;2023-04-06T17:43:01;9.90;;;7.93;;
2031;SDS011;27625;50.422;7.944;2023-04-06T17:45:31;11.00;;;7.97;;
2031;SDS011;27625;50.422;7.944;2023-04-06T17:47:57;10.30;;;7.50;;
2031;SDS011;27625;50.422;7.944;2023-04-06T17:50:27;11.23;;;8.07;;
2031;SDS011;27625;50.422;7.944;2023-04-06T17:52:53;11.70;;;8.03;;
2031;SDS011;27625;50.422;7.944;2023-04-06T17:55:22;10.90;;;8.33;;
2031;SDS011;27625;50.422;7.944;2023-04-06T17:57:49;11.70;;;8.90;;
2031;SDS011;27625;50.422;7.944;2023-04-06T18:00:16;12.33;;;8.70;;
2031;SDS011;27625;50.422;7.944;2023-04-06T18:02:49;11.10;;;8.73;;
2031;SDS011;27625;50.422;7.944;2023-04-06T18:05:17;12.07;;;8.80;;
2031;SDS011;27625;50.422;7.944;2023-04-06T18:07:44;11.27;;;8.60;;
2031;SDS011;27625;50.422;7.944;2023-04-06T18:10:11;9.80;;;8.43;;
2031;SDS011;27625;50.422;7.944;2023-04-06T18:12:37;11.57;;;8.67;;
2031;SDS011;27625;50.422;7.944;2023-04-06T18:15:10;11.53;;;9.97;;
2031;SDS011;27625;50.422;7.944;2023-04-06T18:17:38;13.57;;;9.70;;
2031;SDS011;27625;50.422;7.944;2023-04-06T18:20:07;14.67;;;13.17;;
2031;SDS011;27625;50.422;7.944;2023-04-06T18:22:35;13.30;;;11.43;;
2031;SDS011;27625;50.422;7.944;2023-04-06T18:25:04;13.67;;;11.30;;
2031;SDS011;27625;50.422;7.944;2023-04-06T18:27:31;13.13;;;11.30;;
2031;SDS011;27625;50.422;7.944;2023-04-06T18:29:59;14.50;;;11.23;;
2031;SDS011;27625;50.422;7.944;2023-04-06T18:32:26;14.50;;;11.40;;
2031;SDS011;27625;50.422;7.944;2023-04-06T18:34:58;11.10;;;9.70;;
2031;SDS011;27625;50.422;7.944;2023-04-06T18:37:26;14.73;;;11.70;;
2031;SDS011;27625;50.422;7.944;2023-04-06T18:39:53;17.47;;;13.87;;
2031;SDS011;27625;50.422;7.944;2023-04-06T18:42:22;14.60;;;11.17;;
2031;SDS011;27625;50.422;7.944;2023-04-06T18:44:51;13.63;;;11.93;;
2031;SDS011;27625;50.422;7.944;2023-04-06T18:47:25;14.97;;;12.67;;
2031;SDS011;27625;50.422;7.944;2023-04-06T18:49:52;12.00;;;10.57;;
2031;SDS011;27625;50.422;7.944;2023-04-06T18:52:21;14.73;;;10.80;;
2031;SDS011;27625;50.422;7.944;2023-04-06T18:54:53;14.07;;;11.93;;
2031;SDS011;27625;50.422;7.944;2023-04-06T18:57:20;22.33;;;11.30;;
2031;SDS011;27625;50.422;7.944;2023-04-06T18:59:48;13.57;;;11.30;;
2031;SDS011;27625;50.422;7.944;2023-04-06T19:02:17;14.40;;;11.83;;
2031;SDS011;27625;50.422;7.944;2023-04-06T19:04:43;15.27;;;11.80;;
2031;SDS011;27625;50.422;7.944;2023-04-06T19:07:12;15.40;;;12.80;;
2031;SDS011;27625;50.422;7.944;2023-04-06T19:09:41;16.13;;;11.90;;
2031;SDS011;27625;50.422;7.944;2023-04-06T19:12:09;13.63;;;11.10;;
2031;SDS011;27625;50.422;7.944;2023-04-06T19:14:37;13.43;;;11.27;;
2031;SDS011;27625;50.422;7.944;2023-04-06T19:17:11;14.10;;;11.23;;
2031;SDS011;27625;50.422;7.944;2023-04-06T19:19:38;15.10;;;12.27;;
2031;SDS011;27625;50.422;7.944;2023-04-06T19:22:04;14.80;;;11.40;;
2031;SDS011;27625;50.422;7.944;2023-04-06T19:24:31;14.50;;;11.70;;
2031;SDS011;27625;50.422;7.944;2023-04-06T19:27:07;14.83;;;11.33;;
2031;SDS011;27625;50.422;7.944;2023-04-06T19:29:36;16.73;;;11.80;;
2031;SDS011;27625;50.422;7.944;2023-04-06T19:32:06;16.00;;;11.87;;
2031;SDS011;27625;50.422;7.944;2023-04-06T19:34:35;17.37;;;11.80;;
2031;SDS011;27625;50.422;7.944;2023-04-06T19:37:03;16.43;;;12.07;;
2031;SDS011;27625;50.422;7.944;2023-04-06T19:39:42;15.80;;;12.70;;
2031;SDS011;27625;50.422;7.944;2023-04-06T19:42:09;16.43;;;11.77;;
2031;SDS011;27625;50.422;7.944;2023-04-06T19:44:40;18.03;;;13.30;;
2031;SDS011;27625;50.422;7.944;2023-04-06T19:47:07;14.53;;;12.20;;
2031;SDS011;27625;50.422;7.944;2023-04-06T19:49:36;17.10;;;12.07;;
2031;SDS011;27625;50.422;7.944;2023-04-06T19:52:08;14.40;;;11.63;;
2031;SDS011;27625;50.422;7.944;2023-04-06T19:54:37;15.23;;;12.13;;
2031;SDS011;27625;50.422;7.944;2023-04-06T19:59:44;17.10;;;11.60;;
2031;SDS011;27625;50.422;7.944;2023-04-06T20:02:11;14.57;;;11.67;;
2031;SDS011;27625;50.422;7.944;2023-04-06T20:04:40;17.93;;;12.63;;
2031;SDS011;27625;50.422;7.944;2023-04-06T20:07:09;13.30;;;10.90;;
2031;SDS011;27625;50.422;7.944;2023-04-06T20:09:37;13.67;;;10.43;;
2031;SDS011;27625;50.422;7.944;2023-04-06T20:12:05;13.70;;;12.10;;
2031;SDS011;27625;50.422;7.944;2023-04-06T20:14:32;17.43;;;12.50;;
2031;SDS011;27625;50.422;7.944;2023-04-06T20:17:02;13.57;;;11.70;;
2031;SDS011;27625;50.422;7.944;2023-04-06T20:19:30;14.90;;;12.30;;
2031;SDS011;27625;50.422;7.944;2023-04-06T20:21:58;15.37;;;12.20;;
2031;SDS011;27625;50.422;7.944;2023-04-06T20:24:27;15.83;;;12.20;;
2031;SDS011;27625;50.422;7.944;2023-04-06T20:26:54;15.53;;;12.63;;
2031;SDS011;27625;50.422;7.944;2023-04-06T20:29:24;16.87;;;13.30;;
2031;SDS011;27625;50.422;7.944;2023-04-06T20:31:52;15.43;;;12.60;;
2031;SDS011;27625;50.422;7.944;2023-04-06T20:34:25;16.33;;;13.13;;
2031;SDS011;27625;50.422;7.944;2023-04-06T20:36:53;17.60;;;13.70;;
2031;SDS011;27625;50.422;7.944;2023-04-06T20:39:20;15.17;;;12.73;;
2031;SDS011;27625;50.422;7.944;2023-04-06T20:41:50;15.93;;;12.87;;
2031;SDS011;27625;50.422;7.944;2023-04-06T20:44:19;16.63;;;13.77;;
2031;SDS011;27625;50.422;7.944;2023-04-06T20:46:46;16.10;;;12.40;;
2031;SDS011;27625;50.422;7.944;2023-04-06T20:49:13;16.30;;;12.60;;
2031;SDS011;27625;50.422;7.944;2023-04-06T20:51:49;15.83;;;11.90;;
2031;SDS011;27625;50.422;7.944;2023-04-06T20:54:16;16.97;;;13.97;;
2031;SDS011;27625;50.422;7.944;2023-04-06T20:56:44;17.07;;;13.60;;
2031;SDS011;27625;50.422;7.944;2023-04-06T20:59:10;16.73;;;12.63;;
2031;SDS011;27625;50.422;7.944;2023-04-06T21:01:38;16.37;;;12.40;;
2031;SDS011;27625;50.422;7.944;2023-04-06T21:04:05;18.17;;;11.83;;
2031;SDS011;27625;50.422;7.944;2023-04-06T21:06:32;16.57;;;12.97;;
2031;SDS011;27625;50.422;7.944;2023-04-06T21:09:01;14.70;;;12.00;;
2031;SDS011;27625;50.422;7.944;2023-04-06T21:11:32;14.63;;;12.13;;
2031;SDS011;27625;50.422;7.944;2023-04-06T21:13:59;15.50;;;12.00;;
2031;SDS011;27625;50.422;7.944;2023-04-06T21:16:27;16.60;;;11.67;;
2031;SDS011;27625;50.422;7.944;2023-04-06T21:19:02;15.07;;;12.30;;
2031;SDS011;27625;50.422;7.944;2023-04-06T21:21:29;17.17;;;13.20;;
2031;SDS011;27625;50.422;7.944;2023-04-06T21:23:55;15.60;;;12.33;;
2031;SDS011;27625;50.422;7.944;2023-04-06T21:26:24;17.80;;;13.67;;
2031;SDS011;27625;50.422;7.944;2023-04-06T21:28:51;19.87;;;13.77;;
2031;SDS011;27625;50.422;7.944;2023-04-06T21:31:19;20.50;;;14.90;;
2031;SDS011;27625;50.422;7.944;2023-04-06T21:33:48;16.83;;;13.43;;
2031;SDS011;27625;50.422;7.944;2023-04-06T21:36:16;17.60;;;13.20;;
2031;SDS011;27625;50.422;7.944;2023-04-06T21:38:42;18.87;;;14.70;;
2031;SDS011;27625;50.422;7.944;2023-04-06T21:41:09;19.53;;;15.37;;
2031;SDS011;27625;50.422;7.944;2023-04-06T21:43:37;19.50;;;15.27;;
2031;SDS011;27625;50.422;7.944;2023-04-06T21:46:04;22.20;;;14.87;;
2031;SDS011;27625;50.422;7.944;2023-04-06T21:48:32;17.90;;;13.53;;
2031;SDS011;27625;50.422;7.944;2023-04-06T21:50:59;19.20;;;14.50;;
2031;SDS011;27625;50.422;7.944;2023-04-06T21:53:28;19.50;;;14.33;;
2031;SDS011;27625;50.422;7.944;2023-04-06T21:55:55;22.70;;;14.20;;
2031;SDS011;27625;50.422;7.944;2023-04-06T21:58:21;16.37;;;14.20;;
2031;SDS011;27625;50.422;7.944;2023-04-06T22:00:51;18.93;;;14.23;;
2031;SDS011;27625;50.422;7.944;2023-04-06T22:03:19;16.60;;;13.83;;
2031;SDS011;27625;50.422;7.944;2023-04-06T22:05:46;18.37;;;13.50;;
2031;SDS011;27625;50.422;7.944;2023-04-06T22:08:13;18.23;;;13.50;;
2031;SDS011;27625;50.422;7.944;2023-04-06T22:10:39;19.43;;;14.90;;
2031;SDS011;27625;50.422;7.944;2023-04-06T22:13:06;17.93;;;14.20;;
2031;SDS011;27625;50.422;7.944;2023-04-06T22:15:34;18.53;;;14.17;;
2031;SDS011;27625;50.422;7.944;2023-04-06T22:18:03;17.40;;;13.90;;
2031;SDS011;27625;50.422;7.944;2023-04-06T22:20:30;17.37;;;14.27;;
2031;SDS011;27625;50.422;7.944;2023-04-06T22:22:56;16.97;;;13.43;;
2031;SDS011;27625;50.422;7.944;2023-04-06T22:25:23;19.07;;;13.97;;
2031;SDS011;27625;50.422;7.944;2023-04-06T22:27:58;18.37;;;14.30;;
2031;SDS011;27625;50.422;7.944;2023-04-06T22:30:25;17.93;;;14.17;;
2031;SDS011;27625;50.422;7.944;2023-04-06T22:32:59;19.10;;;13.63;;
2031;SDS011;27625;50.422;7.944;2023-04-06T22:35:28;14.90;;;12.60;;
2031;SDS011;27625;50.422;7.944;2023-04-06T22:37:57;16.60;;;14.10;;
2031;SDS011;27625;50.422;7.944;2023-04-06T22:40:26;18.10;;;13.67;;
2031;SDS011;27625;50.422;7.944;2023-04-06T22:42:55;17.83;;;13.50;;
2031;SDS011;27625;50.422;7.944;2023-04-06T22:45:22;16.90;;;13.93;;
2031;SDS011;27625;50.422;7.944;2023-04-06T22:47:50;16.77;;;14.00;;
2031;SDS011;27625;50.422;7.944;2023-04-06T22:50:19;18.40;;;13.57;;
2031;SDS011;27625;50.422;7.944;2023-04-06T22:52:47;19.33;;;15.03;;
2031;SDS011;27625;50.422;7.944;2023-04-06T22:55:14;20.80;;;15.03;;
2031;SDS011;27625;50.422;7.944;2023-04-06T22:57:40;18.87;;;14.03;;
2031;SDS011;27625;50.422;7.944;2023-04-06T23:00:07;17.70;;;14.87;;
2031;SDS011;27625;50.422;7.944;2023-04-06T23:02:36;15.90;;;12.80;;
2031;SDS011;27625;50.422;7.944;2023-04-06T23:05:03;17.13;;;13.10;;
2031;SDS011;27625;50.422;7.944;2023-04-06T23:07:30;17.50;;;13.07;;
2031;SDS011;27625;50.422;7.944;2023-04-06T23:10:05;16.80;;;13.70;;
2031;SDS011;27625;50.422;7.944;2023-04-06T23:12:35;17.80;;;14.00;;
2031;SDS011;27625;50.422;7.944;2023-04-06T23:15:02;18.10;;;13.73;;
2031;SDS011;27625;50.422;7.944;2023-04-06T23:17:36;20.57;;;14.43;;
2031;SDS011;27625;50.422;7.944;2023-04-06T23:20:04;23.57;;;15.50;;
2031;SDS011;27625;50.422;7.944;2023-04-06T23:22:31;22.50;;;15.87;;
2031;SDS011;27625;50.422;7.944;2023-04-06T23:24:59;21.23;;;16.83;;
2031;SDS011;27625;50.422;7.944;2023-04-06T23:27:27;22.07;;;16.10;;
2031;SDS011;27625;50.422;7.944;2023-04-06T23:29:53;21.97;;;17.00;;
2031;SDS011;27625;50.422;7.944;2023-04-06T23:32:21;19.80;;;15.47;;
2031;SDS011;27625;50.422;7.944;2023-04-06T23:34:48;22.53;;;16.00;;
